createdAt,value
2019-06-10T00:01:31.867Z,4.17
2019-06-10T00:04:05.167Z,3.83
2019-06-10T00:06:31.888Z,3.83
2019-06-10T00:09:03.623Z,3.80
2019-06-10T00:11:31.560Z,4.30
2019-06-10T00:14:02.465Z,4.07
2019-06-10T00:16:30.945Z,3.43
2019-06-10T00:19:02.816Z,3.83
2019-06-10T00:21:30.889Z,4.10
2019-06-10T00:24:02.618Z,3.10
2019-06-10T00:26:31.851Z,3.50
2019-06-10T00:29:02.745Z,3.70
2019-06-10T00:31:31.354Z,3.83
2019-06-10T00:34:02.932Z,3.70
2019-06-10T00:36:31.012Z,3.40
2019-06-10T00:39:02.421Z,3.90
2019-06-10T00:41:31.439Z,3.77
2019-06-10T00:44:02.452Z,4.00
2019-06-10T00:46:31.758Z,3.87
2019-06-10T00:49:02.941Z,3.33
2019-06-10T00:51:31.470Z,3.90
2019-06-10T00:54:03.273Z,4.03
2019-06-10T00:56:31.249Z,4.00
2019-06-10T00:59:01.035Z,4.10
2019-06-10T01:01:31.378Z,4.00
2019-06-10T01:04:02.924Z,4.40
2019-06-10T01:06:31.800Z,3.50
2019-06-10T01:09:00.757Z,3.80
2019-06-10T01:11:31.091Z,4.30
2019-06-10T01:14:01.556Z,3.67
2019-06-10T01:16:31.785Z,4.13
2019-06-10T01:19:01.419Z,3.70
2019-06-10T01:21:31.734Z,3.83
2019-06-10T01:24:01.219Z,3.60
2019-06-10T01:26:31.044Z,3.97
2019-06-10T01:29:01.079Z,3.97
2019-06-10T01:31:31.780Z,3.90
2019-06-10T01:34:01.553Z,3.43
2019-06-10T01:36:31.483Z,3.20
2019-06-10T01:39:02.229Z,4.40
2019-06-10T01:41:31.514Z,3.57
2019-06-10T01:44:01.695Z,4.70
2019-06-10T01:46:31.650Z,3.50
2019-06-10T01:49:00.816Z,4.00
2019-06-10T01:51:31.677Z,3.90
2019-06-10T01:54:01.320Z,4.10
2019-06-10T01:56:31.635Z,3.83
2019-06-10T01:59:01.550Z,3.87
2019-06-10T02:01:32.632Z,3.70
2019-06-10T02:04:01.367Z,4.13
2019-06-10T02:06:31.696Z,4.80
2019-06-10T02:09:05.164Z,3.70
2019-06-10T02:11:35.257Z,3.90
2019-06-10T02:14:05.336Z,4.50
2019-06-10T02:16:33.943Z,3.60
2019-06-10T02:19:04.168Z,4.43
2019-06-10T02:21:32.974Z,4.40
2019-06-10T02:24:01.830Z,4.70
2019-06-10T02:26:30.974Z,3.97
2019-06-10T02:29:00.709Z,3.50
2019-06-10T02:31:39.717Z,4.80
2019-06-10T02:34:02.558Z,4.37
2019-06-10T02:36:36.340Z,4.17
2019-06-10T02:39:04.552Z,4.53
2019-06-10T02:41:35.979Z,3.60
2019-06-10T02:44:04.394Z,4.17
2019-06-10T02:46:35.975Z,3.87
2019-06-10T02:49:20.699Z,4.63
2019-06-10T02:51:35.697Z,4.20
2019-06-10T02:54:04.686Z,4.47
2019-06-10T02:56:36.351Z,4.30
2019-06-10T02:59:04.003Z,4.57
2019-06-10T03:01:37.659Z,3.90
2019-06-10T03:04:04.398Z,3.60
2019-06-10T03:06:39.385Z,4.70
2019-06-10T03:09:04.058Z,4.73
2019-06-10T03:11:36.968Z,4.50
2019-06-10T03:14:02.930Z,4.40
2019-06-10T03:16:36.615Z,4.50
2019-06-10T03:19:05.231Z,4.40
2019-06-10T03:21:33.790Z,5.50
2019-06-10T03:24:02.772Z,3.90
2019-06-10T03:26:32.324Z,4.10
2019-06-10T03:29:02.686Z,4.23
2019-06-10T03:31:46.277Z,4.80
2019-06-10T03:34:05.007Z,4.63
2019-06-10T03:36:32.316Z,3.83
2019-06-10T03:39:02.545Z,4.00
2019-06-10T03:41:32.320Z,4.03
2019-06-10T03:44:02.563Z,4.30
2019-06-10T03:46:32.832Z,3.70
2019-06-10T03:49:03.191Z,3.70
2019-06-10T03:51:33.316Z,5.03
2019-06-10T03:54:02.595Z,4.53
2019-06-10T03:56:32.213Z,4.30
2019-06-10T03:59:02.776Z,3.73
2019-06-10T04:01:33.364Z,5.00
2019-06-10T04:04:02.775Z,4.87
2019-06-10T04:06:33.672Z,5.40
2019-06-10T04:09:02.801Z,3.20
2019-06-10T04:11:34.883Z,4.20
2019-06-10T04:14:02.450Z,4.60
2019-06-10T04:16:32.728Z,4.13
2019-06-10T04:19:02.535Z,4.20
2019-06-10T04:21:32.639Z,4.23
2019-06-10T04:24:02.364Z,4.97
2019-06-10T04:26:32.732Z,4.77
2019-06-10T04:29:02.443Z,5.53
2019-06-10T04:31:33.076Z,5.50
2019-06-10T04:34:03.132Z,4.80
2019-06-10T04:36:33.261Z,5.67
2019-06-10T04:39:03.235Z,4.80
2019-06-10T04:41:32.484Z,4.90
2019-06-10T04:44:02.748Z,4.00
2019-06-10T04:46:32.619Z,4.77
2019-06-10T04:49:02.682Z,5.23
2019-06-10T04:51:32.888Z,5.60
2019-06-10T04:54:03.333Z,6.30
2019-06-10T04:56:33.370Z,5.40
2019-06-10T04:59:03.135Z,5.50
2019-06-10T05:01:33.535Z,5.40
2019-06-10T05:04:03.184Z,4.90
2019-06-10T05:06:32.833Z,5.73
2019-06-10T05:09:04.056Z,4.20
2019-06-10T05:11:33.073Z,4.63
2019-06-10T05:14:02.743Z,4.30
2019-06-10T05:16:35.511Z,4.67
2019-06-10T05:19:03.809Z,4.70
2019-06-10T05:21:33.709Z,5.50
2019-06-10T05:24:03.015Z,6.13
2019-06-10T05:26:33.585Z,5.17
2019-06-10T05:29:03.160Z,5.90
2019-06-10T05:31:34.962Z,5.20
2019-06-10T05:34:02.926Z,4.90
2019-06-10T05:36:34.751Z,5.53
2019-06-10T05:39:02.866Z,6.10
2019-06-10T05:41:35.071Z,5.30
2019-06-10T05:44:02.702Z,5.43
2019-06-10T05:46:34.680Z,5.60
2019-06-10T05:49:03.102Z,5.40
2019-06-10T05:51:34.912Z,4.50
2019-06-10T05:54:02.271Z,5.87
2019-06-10T05:56:35.162Z,6.20
2019-06-10T05:59:04.382Z,5.63
2019-06-10T06:01:38.014Z,5.80
2019-06-10T06:04:03.501Z,6.07
2019-06-10T06:06:35.169Z,5.40
2019-06-10T06:09:03.677Z,5.47
2019-06-10T06:11:35.191Z,5.87
2019-06-10T06:14:13.293Z,5.63
2019-06-10T06:16:43.327Z,5.13
2019-06-10T06:19:12.719Z,5.30
2019-06-10T06:21:47.065Z,5.07
2019-06-10T06:24:12.841Z,4.97
2019-06-10T06:26:43.162Z,5.00
2019-06-10T06:29:12.959Z,5.30
2019-06-10T06:31:42.990Z,4.50
2019-06-10T06:34:13.902Z,5.07
2019-06-10T06:36:42.451Z,5.43
2019-06-10T06:39:12.857Z,4.10
2019-06-10T06:41:42.728Z,3.60
2019-06-10T06:44:16.574Z,4.33
2019-06-10T06:46:45.176Z,3.90
2019-06-10T06:49:13.767Z,3.63
2019-06-10T06:51:51.839Z,3.60
2019-06-10T06:54:12.735Z,3.60
2019-06-10T06:56:43.727Z,3.30
2019-06-10T06:59:13.139Z,3.63
2019-06-10T07:01:44.216Z,3.83
2019-06-10T07:04:13.075Z,3.43
2019-06-10T07:06:43.246Z,4.27
2019-06-10T07:09:13.553Z,4.00
2019-06-10T07:11:45.030Z,3.13
2019-06-10T07:14:14.082Z,3.90
2019-06-10T07:16:46.072Z,3.80
2019-06-10T07:19:13.271Z,3.63
2019-06-10T07:22:02.376Z,3.70
2019-06-10T07:24:12.682Z,3.80
2019-06-10T07:26:49.404Z,3.53
2019-06-10T07:29:13.244Z,3.70
2019-06-10T07:31:45.453Z,4.80
2019-06-10T07:34:12.958Z,3.90
2019-06-10T07:36:44.029Z,4.27
2019-06-10T07:39:13.449Z,4.50
2019-06-10T07:41:47.494Z,3.87
2019-06-10T07:44:12.591Z,4.40
2019-06-10T07:46:43.821Z,4.00
2019-06-10T07:49:13.482Z,4.73
2019-06-10T07:51:45.579Z,3.63
2019-06-10T07:54:12.415Z,4.13
2019-06-10T07:56:47.839Z,3.63
2019-06-10T07:59:12.912Z,4.00
2019-06-10T08:01:48.421Z,3.50
2019-06-10T08:04:12.143Z,3.70
2019-06-10T08:06:44.078Z,4.47
2019-06-10T08:09:12.622Z,3.87
2019-06-10T08:11:44.454Z,3.70
2019-06-10T08:14:12.975Z,4.10
2019-06-10T08:16:44.776Z,3.80
2019-06-10T08:19:34.860Z,3.73
2019-06-10T08:21:46.159Z,4.00
2019-06-10T08:24:12.768Z,4.03
2019-06-10T08:26:43.664Z,4.10
2019-06-10T08:29:12.693Z,4.03
2019-06-10T08:31:44.469Z,3.90
2019-06-10T08:34:13.458Z,3.83
2019-06-10T08:36:46.078Z,3.30
2019-06-10T08:39:15.756Z,3.73
2019-06-10T08:41:45.582Z,3.63
2019-06-10T08:44:12.698Z,3.30
2019-06-10T08:46:43.666Z,4.43
2019-06-10T08:49:12.629Z,4.57
2019-06-10T08:51:46.512Z,4.40
2019-06-10T08:54:12.827Z,4.00
2019-06-10T08:56:45.156Z,3.80
2019-06-10T08:59:12.409Z,4.37
2019-06-10T09:01:46.058Z,4.23
2019-06-10T09:04:13.359Z,4.07
2019-06-10T09:06:46.349Z,4.03
2019-06-10T09:09:12.883Z,4.00
2019-06-10T09:11:46.903Z,4.40
2019-06-10T09:14:12.614Z,4.60
2019-06-10T09:16:44.418Z,4.87
2019-06-10T09:19:12.704Z,4.17
2019-06-10T09:21:48.079Z,4.40
2019-06-10T09:24:12.912Z,4.87
2019-06-10T09:26:46.577Z,4.60
2019-06-10T09:29:13.425Z,3.93
2019-06-10T09:31:46.835Z,4.57
2019-06-10T09:34:12.825Z,4.27
2019-06-10T09:36:46.222Z,4.00
2019-06-10T09:39:12.589Z,4.60
2019-06-10T09:41:50.331Z,4.27
2019-06-10T09:44:13.067Z,4.20
2019-06-10T09:46:47.034Z,4.20
2019-06-10T09:49:14.870Z,4.30
2019-06-10T09:51:47.218Z,4.93
2019-06-10T09:54:13.806Z,4.67
2019-06-10T09:56:45.141Z,4.80
2019-06-10T09:59:13.456Z,4.50
2019-06-10T10:01:47.309Z,4.27
2019-06-10T10:04:12.558Z,5.33
2019-06-10T10:06:44.813Z,4.90
2019-06-10T10:09:12.484Z,5.40
2019-06-10T10:11:44.061Z,5.43
2019-06-10T10:14:15.791Z,5.40
2019-06-10T10:16:43.110Z,5.27
2019-06-10T10:19:13.130Z,5.00
2019-06-10T10:21:47.753Z,4.70
2019-06-10T10:24:14.891Z,4.80
2019-06-10T10:26:45.061Z,5.13
2019-06-10T10:29:13.172Z,5.07
2019-06-10T10:31:45.238Z,5.50
2019-06-10T10:34:13.415Z,4.90
2019-06-10T10:36:44.974Z,4.60
2019-06-10T10:39:14.004Z,5.17
2019-06-10T10:41:44.761Z,4.70
2019-06-10T10:44:13.781Z,4.43
2019-06-10T10:46:43.174Z,5.23
2019-06-10T10:49:13.333Z,5.50
2019-06-10T10:51:42.888Z,5.13
2019-06-10T10:54:22.556Z,4.27
2019-06-10T10:56:44.579Z,4.70
2019-06-10T10:59:12.823Z,4.20
2019-06-10T11:01:43.757Z,4.93
2019-06-10T11:04:13.253Z,5.07
2019-06-10T11:06:43.008Z,4.90
2019-06-10T11:09:37.019Z,4.67
2019-06-10T11:12:05.826Z,4.70
2019-06-10T11:14:35.537Z,5.20
2019-06-10T11:17:06.839Z,5.30
2019-06-10T11:19:35.586Z,5.17
2019-06-10T11:22:06.221Z,4.27
2019-06-10T11:24:41.158Z,4.87
2019-06-10T11:27:06.483Z,5.43
2019-06-10T11:29:35.226Z,4.90
2019-06-10T11:32:04.904Z,5.40
2019-06-10T11:34:34.179Z,4.80
2019-06-10T11:37:05.134Z,5.27
2019-06-10T11:39:38.601Z,5.33
2019-06-10T11:42:04.763Z,5.03
2019-06-10T11:44:34.048Z,4.70
2019-06-10T11:47:03.808Z,5.53
2019-06-10T11:49:33.673Z,4.77
2019-06-10T11:52:04.012Z,4.53
2019-06-10T11:54:47.856Z,5.07
2019-06-10T11:57:04.658Z,4.67
2019-06-10T11:59:33.969Z,4.60
2019-06-10T12:02:06.020Z,5.30
2019-06-10T12:04:34.981Z,4.37
2019-06-10T12:07:03.999Z,4.60
2019-06-10T12:09:33.520Z,4.73
2019-06-10T12:12:04.632Z,6.27
2019-06-10T12:14:34.657Z,6.77
2019-06-10T12:17:34.893Z,6.10
2019-06-10T12:19:39.705Z,4.93
2019-06-10T12:22:08.326Z,5.73
2019-06-10T12:24:36.894Z,6.70
2019-06-10T12:27:05.831Z,6.93
2019-06-10T12:29:34.974Z,7.20
2019-06-10T12:32:07.346Z,6.90
2019-06-10T12:34:34.965Z,5.23
2019-06-10T12:37:11.165Z,5.67
2019-06-10T12:39:35.538Z,5.43
2019-06-10T12:42:06.437Z,7.33
2019-06-10T12:44:36.153Z,6.57
2019-06-10T12:47:07.932Z,6.30
2019-06-10T12:49:35.790Z,5.60
2019-06-10T12:52:07.992Z,6.40
2019-06-10T12:55:04.162Z,5.77
2019-06-10T12:57:33.928Z,6.00
2019-06-10T13:00:19.206Z,7.00
2019-06-10T13:02:38.322Z,6.50
2019-06-10T13:05:12.927Z,5.10
2019-06-10T13:07:43.310Z,6.23
2019-06-10T13:10:12.686Z,5.70
2019-06-10T13:12:42.907Z,6.10
2019-06-10T13:15:12.150Z,6.47
2019-06-10T13:17:43.933Z,6.63
2019-06-10T13:20:13.545Z,7.10
2019-06-10T13:22:43.256Z,5.90
2019-06-10T13:25:13.474Z,7.77
2019-06-10T13:27:42.848Z,5.90
2019-06-10T13:30:11.837Z,7.20
2019-06-10T13:32:43.275Z,6.10
2019-06-10T13:35:12.463Z,6.40
2019-06-10T13:37:42.873Z,6.53
2019-06-10T13:40:12.988Z,5.83
2019-06-10T13:42:42.378Z,7.27
2019-06-10T13:45:11.678Z,6.87
2019-06-10T13:47:42.824Z,6.00
2019-06-10T13:50:14.218Z,6.67
2019-06-10T13:52:42.621Z,7.17
2019-06-10T13:55:13.665Z,6.57
2019-06-10T13:57:42.647Z,7.10
2019-06-10T14:00:14.647Z,5.47
2019-06-10T14:02:43.970Z,6.37
2019-06-10T14:05:18.330Z,6.90
2019-06-10T14:07:44.280Z,6.30
2019-06-10T14:10:18.017Z,6.73
2019-06-10T14:12:47.696Z,7.40
2019-06-10T14:15:17.012Z,6.53
2019-06-10T14:17:44.445Z,6.20
2019-06-10T14:20:15.409Z,7.80
2019-06-10T14:22:43.886Z,7.30
2019-06-10T14:25:16.777Z,6.87
2019-06-10T14:27:43.499Z,6.40
2019-06-10T14:30:15.409Z,7.87
2019-06-10T14:32:43.010Z,7.40
2019-06-10T14:35:15.506Z,7.50
2019-06-10T14:37:43.007Z,7.50
2019-06-10T14:40:20.092Z,7.93
2019-06-10T14:42:42.930Z,7.33
2019-06-10T14:45:13.909Z,6.83
2019-06-10T14:47:43.150Z,7.03
2019-06-10T14:50:15.353Z,7.60
2019-06-10T14:52:42.840Z,6.73
2019-06-10T14:55:14.804Z,6.97
2019-06-10T14:57:42.609Z,7.80
2019-06-10T15:00:15.640Z,8.03
2019-06-10T15:02:42.966Z,7.33
2019-06-10T15:05:15.380Z,7.80
2019-06-10T15:07:42.375Z,7.43
2019-06-10T15:10:15.482Z,7.30
2019-06-10T15:12:42.331Z,7.00
2019-06-10T15:15:12.141Z,7.57
2019-06-10T15:17:43.056Z,7.37
2019-06-10T15:20:11.686Z,7.17
2019-06-10T15:22:40.315Z,7.20
2019-06-10T15:25:09.237Z,7.00
2019-06-10T15:27:37.838Z,6.30
2019-06-10T15:30:13.368Z,7.67
2019-06-10T15:32:37.933Z,7.20
2019-06-10T15:35:08.646Z,7.63
2019-06-10T15:37:37.179Z,6.97
2019-06-10T15:40:07.264Z,7.80
2019-06-10T15:42:35.896Z,8.17
2019-06-10T15:45:06.322Z,8.20
2019-06-10T15:47:34.952Z,7.50
2019-06-10T15:50:03.706Z,7.80
2019-06-10T15:52:32.858Z,6.80
2019-06-10T15:55:04.130Z,7.57
2019-06-10T15:57:40.784Z,7.57
2019-06-10T16:00:04.197Z,7.40
2019-06-10T16:02:33.510Z,7.67
2019-06-10T16:05:02.257Z,7.27
2019-06-10T16:07:32.571Z,7.20
2019-06-10T16:10:02.845Z,8.70
2019-06-10T16:12:33.033Z,7.77
2019-06-10T16:15:02.688Z,7.90
2019-06-10T16:17:33.187Z,8.00
2019-06-10T16:20:03.781Z,8.00
2019-06-10T16:22:31.978Z,8.23
2019-06-10T16:25:03.306Z,7.70
2019-06-10T16:27:46.339Z,8.07
2019-06-10T16:30:05.833Z,8.13
2019-06-10T16:32:34.393Z,8.43
2019-06-10T16:35:04.342Z,7.83
2019-06-10T16:37:33.017Z,8.20
2019-06-10T16:40:03.299Z,7.77
2019-06-10T16:42:33.316Z,7.83
2019-06-10T16:45:02.906Z,8.10
2019-06-10T16:47:32.650Z,7.30
2019-06-10T16:50:03.284Z,8.40
2019-06-10T16:52:36.794Z,7.70
2019-06-10T16:55:06.494Z,7.90
2019-06-10T16:57:35.090Z,7.70
2019-06-10T17:00:11.302Z,8.30
2019-06-10T17:02:35.954Z,7.90
2019-06-10T17:05:06.073Z,7.70
2019-06-10T17:07:35.260Z,8.30
2019-06-10T17:10:05.971Z,7.80
2019-06-10T17:12:34.534Z,9.07
2019-06-10T17:15:03.983Z,7.93
2019-06-10T17:17:32.875Z,7.77
2019-06-10T17:20:03.735Z,7.70
2019-06-10T17:22:33.426Z,7.60
2019-06-10T17:25:02.340Z,8.50
2019-06-10T17:27:32.736Z,9.47
2019-06-10T17:30:03.053Z,7.70
2019-06-10T17:32:32.948Z,8.67
2019-06-10T17:35:02.316Z,8.60
2019-06-10T17:37:33.608Z,8.10
2019-06-10T17:40:02.633Z,8.17
2019-06-10T17:42:37.343Z,8.07
2019-06-10T17:45:02.495Z,7.57
2019-06-10T17:47:32.420Z,9.10
2019-06-10T17:50:02.443Z,8.30
2019-06-10T17:52:33.195Z,8.30
2019-06-10T17:55:03.327Z,8.93
2019-06-10T17:57:36.094Z,9.13
2019-06-10T18:00:11.030Z,9.67
2019-06-10T18:02:38.420Z,8.60
2019-06-10T18:05:07.056Z,7.87
2019-06-10T18:07:35.838Z,7.80
2019-06-10T18:10:06.640Z,8.77
2019-06-10T18:12:35.837Z,8.47
2019-06-10T18:15:05.881Z,9.40
2019-06-10T18:17:36.293Z,8.83
2019-06-10T18:20:06.829Z,7.80
2019-06-10T18:22:37.063Z,9.67
2019-06-10T18:25:07.746Z,11.50
2019-06-10T18:27:36.759Z,14.17
2019-06-10T18:30:14.613Z,11.63
2019-06-10T18:32:43.155Z,18.70
2019-06-10T18:35:14.321Z,22.30
2019-06-10T18:37:43.154Z,21.47
2019-06-10T18:40:14.479Z,14.40
2019-06-10T18:42:42.302Z,26.30
2019-06-10T18:45:13.018Z,24.03
2019-06-10T18:47:42.306Z,25.13
2019-06-10T18:50:13.396Z,25.70
2019-06-10T18:52:43.384Z,26.00
2019-06-10T18:55:15.235Z,20.70
2019-06-10T18:57:43.798Z,29.30
2019-06-10T19:00:14.764Z,35.20
2019-06-10T19:02:43.474Z,27.37
2019-06-10T19:05:13.243Z,26.47
2019-06-10T19:07:42.947Z,26.70
2019-06-10T19:10:12.621Z,25.70
2019-06-10T19:12:42.477Z,25.17
2019-06-10T19:15:12.050Z,23.07
2019-06-10T19:17:43.973Z,20.60
2019-06-10T19:20:12.955Z,12.70
2019-06-10T19:22:43.214Z,9.63
2019-06-10T19:25:13.696Z,9.83
2019-06-10T19:27:44.344Z,9.30
2019-06-10T19:30:13.179Z,8.50
2019-06-10T19:32:44.195Z,7.23
2019-06-10T19:35:13.719Z,8.23
2019-06-10T19:37:42.424Z,9.17
2019-06-10T19:40:12.455Z,8.50
2019-06-10T19:42:43.388Z,6.83
2019-06-10T19:45:14.337Z,7.40
2019-06-10T19:47:45.545Z,7.77
2019-06-10T19:50:13.402Z,5.87
2019-06-10T19:52:45.371Z,6.07
2019-06-10T19:55:13.335Z,8.27
2019-06-10T19:57:54.187Z,5.23
2019-06-10T20:03:44.661Z,7.37
2019-06-10T20:06:12.865Z,8.27
2019-06-10T20:08:43.133Z,9.77
2019-06-10T20:11:12.361Z,7.83
2019-06-10T20:13:45.370Z,9.00
2019-06-10T20:16:16.585Z,9.50
2019-06-10T20:18:53.394Z,8.77
2019-06-10T20:21:26.585Z,5.30
2019-06-10T20:23:56.596Z,6.50
2019-06-10T20:26:27.917Z,6.80
2019-06-10T20:28:58.709Z,7.60
2019-06-10T20:31:28.316Z,6.60
2019-06-10T20:33:56.935Z,8.50
2019-06-10T20:36:27.033Z,5.77
2019-06-10T20:38:58.199Z,5.50
2019-06-10T20:41:27.901Z,6.27
2019-06-10T20:43:56.688Z,7.57
2019-06-10T20:46:25.704Z,6.90
2019-06-10T20:48:54.705Z,6.13
2019-06-10T20:51:26.865Z,6.00
2019-06-10T20:53:54.102Z,6.57
2019-06-10T20:56:23.561Z,6.37
2019-06-10T20:58:52.626Z,6.30
2019-06-10T21:01:25.360Z,5.53
2019-06-10T21:03:54.186Z,5.63
2019-06-10T21:06:24.149Z,4.90
2019-06-10T21:08:55.000Z,5.00
2019-06-10T21:11:24.332Z,3.97
2019-06-10T21:13:55.702Z,5.40
2019-06-10T21:16:23.826Z,5.87
2019-06-10T21:18:55.493Z,6.43
2019-06-10T21:21:28.034Z,6.60
2019-06-10T21:23:57.535Z,5.97
2019-06-10T21:26:29.504Z,7.00
2019-06-10T21:29:27.469Z,7.33
2019-06-10T21:31:57.264Z,6.70
2019-06-10T21:34:26.614Z,6.13
2019-06-10T21:36:56.807Z,6.50
2019-06-10T21:39:26.649Z,6.83
2019-06-10T21:41:56.195Z,8.50
2019-06-10T21:44:25.611Z,7.00
2019-06-10T21:46:57.866Z,7.57
2019-06-10T21:49:28.631Z,7.37
2019-06-10T21:52:02.830Z,7.43
2019-06-10T21:54:33.130Z,7.97
2019-06-10T21:57:02.760Z,7.60
2019-06-10T21:59:43.903Z,7.70
2019-06-10T22:02:12.807Z,8.13
2019-06-10T22:04:43.633Z,7.80
2019-06-10T22:07:11.659Z,7.17
2019-06-10T22:09:42.615Z,7.20
2019-06-10T22:12:12.016Z,7.03
2019-06-10T22:14:42.224Z,7.50
2019-06-10T22:17:12.253Z,7.40
2019-06-10T22:19:42.711Z,6.70
2019-06-10T22:22:12.977Z,7.23
2019-06-10T22:24:42.402Z,6.27
2019-06-10T22:27:12.989Z,6.67
2019-06-10T22:29:42.710Z,6.23
2019-06-10T22:32:12.980Z,5.63
2019-06-10T22:34:42.191Z,5.93
2019-06-10T22:37:12.487Z,8.00
2019-06-10T22:39:42.079Z,6.17
2019-06-10T22:42:12.260Z,6.90
2019-06-10T22:44:42.361Z,6.40
2019-06-10T22:47:12.163Z,7.10
2019-06-10T22:49:43.042Z,7.30
2019-06-10T22:52:12.591Z,8.53
2019-06-10T22:54:43.062Z,8.43
2019-06-10T22:57:12.930Z,8.40
2019-06-10T22:59:42.563Z,6.27
2019-06-10T23:02:13.115Z,8.90
2019-06-10T23:04:43.432Z,9.97
2019-06-10T23:07:13.229Z,9.30
2019-06-10T23:09:42.870Z,8.43
2019-06-10T23:12:12.028Z,9.60
2019-06-10T23:14:43.417Z,10.77
2019-06-10T23:17:14.028Z,10.47
2019-06-10T23:19:42.781Z,8.60
2019-06-10T23:22:12.638Z,8.33
2019-06-10T23:24:42.666Z,7.30
2019-06-10T23:27:13.122Z,10.33
2019-06-10T23:29:42.753Z,10.00
2019-06-10T23:32:13.000Z,10.00
2019-06-10T23:34:42.252Z,8.70
2019-06-10T23:37:12.527Z,8.93
2019-06-10T23:39:42.656Z,6.10
2019-06-10T23:42:12.186Z,5.53
2019-06-10T23:44:41.053Z,5.50
2019-06-10T23:47:09.662Z,5.93
2019-06-10T23:49:38.270Z,9.47
2019-06-10T23:52:06.865Z,7.37
2019-06-10T23:54:35.501Z,6.30
2019-06-10T23:57:05.931Z,10.57
2019-06-10T23:59:34.386Z,9.33
